»·PEaware :: N71826 KFLG-KPSP

N71826 :: KFLG-KPSP

FLIGHT INFORMATION

Flight Status: Arrived
Operator: Privately registered:
United States
More flights under this callsign
Pilot: Joe C. (19058)
Aircraft: SOCATA TBM-900
(TBM9)
More flights by this aircraft type
Origin: KFLG Flagstaff Pulliam
United States
Destination: KPSP Palm Springs Intl
United States
More flights between these airports :: More routes between these airports
Route: +FLG1 OATES V12 DRK J6 EED V208 TNP V370 PSP
File this flight plan on PilotEdge
Remarks:
Altitude:
(Current/Filed)
28,000ft
Speed:
(Current/Filed)
320kts
Departed: 04-Nov-18 05:49 PM
Arrived: 04-Nov-18 07:01 PM
Distance/Time
Traveled:
252nm/1:12
Distance/Time
To Go:
Arrived

Flight Plot

Page will automatically refresh every two minutes.

Flight plan parsing failed; only flown route is shown


Map Options




Map Legend


Flown Route
Filed Route
Departure Airport
Arrival Airport
Navaid (VOR, NDB)
Fix

Horizontal Profiles

Position Reports

Time Latitude Longitude Heading Altitude Ground
Speed
04-Nov-18 17:30 35.139206 -111.676765 118 7014ft 0kts
04-Nov-18 17:31 35.139206 -111.676765 118 7014ft 0kts
04-Nov-18 17:32 35.139206 -111.676765 118 7014ft 0kts
04-Nov-18 17:33 35.139206 -111.676765 118 7014ft 0kts
04-Nov-18 17:34 35.139206 -111.676766 118 7014ft 0kts
04-Nov-18 17:35 35.139206 -111.676766 118 7014ft 0kts
04-Nov-18 17:36 35.139206 -111.676765 118 7014ft 0kts
04-Nov-18 17:37 35.139206 -111.676765 118 7014ft 0kts
04-Nov-18 17:38 35.139206 -111.676765 118 7014ft 0kts
04-Nov-18 17:39 35.139078 -111.676428 117 7014ft 10kts
04-Nov-18 17:40 35.137853 -111.674674 134 7014ft 0kts
04-Nov-18 17:41 35.137853 -111.674674 134 7014ft 0kts
04-Nov-18 17:42 35.137853 -111.674674 134 7014ft 0kts
04-Nov-18 17:43 35.137853 -111.674674 134 7014ft 0kts
04-Nov-18 17:44 35.137853 -111.674674 134 7014ft 0kts
04-Nov-18 17:45 35.137853 -111.674674 134 7014ft 0kts
04-Nov-18 17:46 35.137853 -111.674674 134 7014ft 0kts
04-Nov-18 17:47 35.137654 -111.674404 131 7014ft 0kts
04-Nov-18 17:48 35.140109 -111.671248 41 7014ft 24kts
04-Nov-18 17:49 35.145916 -111.665076 40 7014ft 30kts
04-Nov-18 17:50 35.149855 -111.660463 121 7014ft 0kts
04-Nov-18 17:51 35.149343 -111.659887 168 7014ft 15kts
04-Nov-18 17:52 35.130600 -111.678598 209 7723ft 134kts
04-Nov-18 17:53 35.091217 -111.681186 193 9707ft 146kts
04-Nov-18 17:54 35.049508 -111.686408 194 11588ft 160kts
04-Nov-18 17:55 35.004653 -111.692165 194 13577ft 167kts
04-Nov-18 17:56 34.957748 -111.698183 192 15372ft 175kts
04-Nov-18 17:57 34.908359 -111.704515 193 17286ft 184kts
04-Nov-18 17:58 34.867624 -111.726988 260 19116ft 157kts
04-Nov-18 17:59 34.855590 -111.777539 266 20835ft 157kts
04-Nov-18 18:00 34.844441 -111.829336 267 22395ft 161kts
04-Nov-18 18:01 34.833066 -111.882239 267 23817ft 164kts
04-Nov-18 18:02 34.821422 -111.936246 268 25114ft 167kts
04-Nov-18 18:03 34.809504 -111.991411 268 26302ft 170kts
04-Nov-18 18:04 34.797353 -112.047514 268 27387ft 173kts
04-Nov-18 18:05 34.784713 -112.106134 267 28102ft 198kts
04-Nov-18 18:06 34.768846 -112.178968 265 28098ft 241kts
04-Nov-18 18:07 34.750805 -112.261230 264 28093ft 261kts
04-Nov-18 18:08 34.731728 -112.348071 264 28089ft 269kts
04-Nov-18 18:09 34.712247 -112.436489 264 28087ft 273kts
04-Nov-18 18:10 34.704495 -112.525270 280 28087ft 262kts
04-Nov-18 18:11 34.707828 -112.613544 280 28085ft 262kts
04-Nov-18 18:12 34.711235 -112.702011 280 28091ft 263kts
04-Nov-18 18:13 34.714590 -112.790642 280 28090ft 264kts
04-Nov-18 18:14 34.717892 -112.879523 279 28089ft 264kts
04-Nov-18 18:15 34.721154 -112.969100 279 28089ft 266kts
04-Nov-18 18:16 34.724349 -113.058967 278 28088ft 267kts
04-Nov-18 18:17 34.727505 -113.149730 278 28074ft 269kts
04-Nov-18 18:18 34.730605 -113.240531 278 28059ft 269kts
04-Nov-18 18:19 34.733639 -113.331244 279 28051ft 269kts
04-Nov-18 18:20 34.736602 -113.421981 278 28050ft 269kts
04-Nov-18 18:21 34.739488 -113.512661 278 28050ft 269kts
04-Nov-18 18:22 34.742310 -113.603330 278 28049ft 268kts
04-Nov-18 18:23 34.745067 -113.694038 278 28054ft 269kts
04-Nov-18 18:24 34.747753 -113.784753 278 28049ft 269kts
04-Nov-18 18:25 34.750402 -113.876092 278 28012ft 271kts
04-Nov-18 18:26 34.752979 -113.967632 278 27976ft 271kts
04-Nov-18 18:26 34.755072 -114.043818 278 27955ft 271kts
04-Nov-18 18:28 34.757923 -114.150489 278 27944ft 270kts
04-Nov-18 18:29 34.760286 -114.241653 278 27933ft 270kts
04-Nov-18 18:30 34.762581 -114.332857 278 27934ft 269kts
04-Nov-18 18:30 34.764439 -114.408554 278 27939ft 272kts
04-Nov-18 18:31 34.751494 -114.500359 249 27947ft 294kts
04-Nov-18 18:32 34.709904 -114.587087 246 27940ft 298kts
04-Nov-18 18:33 34.667103 -114.673196 246 27944ft 299kts
04-Nov-18 18:34 34.623882 -114.759860 246 27945ft 301kts
04-Nov-18 18:35 34.580565 -114.846494 246 27945ft 301kts
04-Nov-18 18:36 34.537147 -114.933122 246 27945ft 301kts
04-Nov-18 18:37 34.493560 -115.019902 245 27945ft 301kts
04-Nov-18 18:38 34.450109 -115.106174 245 27945ft 300kts
04-Nov-18 18:39 34.406522 -115.192527 244 27944ft 300kts
04-Nov-18 18:40 34.362995 -115.278478 244 27970ft 299kts
04-Nov-18 18:41 34.319588 -115.364015 244 27346ft 296kts
04-Nov-18 18:43 34.277150 -115.447475 244 26023ft 291kts
04-Nov-18 18:44 34.234654 -115.530855 244 24348ft 294kts
04-Nov-18 18:45 34.192851 -115.612643 244 22519ft 282kts
04-Nov-18 18:46 34.152156 -115.692118 243 20701ft 275kts
04-Nov-18 18:47 34.113575 -115.767598 246 18973ft 270kts
04-Nov-18 18:48 34.083453 -115.849077 250 17196ft 265kts
04-Nov-18 18:49 34.055105 -115.926776 250 15486ft 263kts
04-Nov-18 18:50 34.027209 -116.003035 250 13491ft 235kts
04-Nov-18 18:51 34.002156 -116.071411 250 11488ft 219kts
04-Nov-18 18:52 33.966695 -116.128477 221 9565ft 217kts
04-Nov-18 18:53 33.924899 -116.167351 221 7673ft 170kts
04-Nov-18 18:54 33.886773 -116.203868 221 6941ft 174kts
04-Nov-18 18:55 33.850148 -116.239394 221 6941ft 163kts
04-Nov-18 18:56 33.816349 -116.272394 221 6950ft 153kts
04-Nov-18 18:57 33.782815 -116.305829 221 6412ft 163kts
04-Nov-18 18:58 33.760630 -116.343447 237 4952ft 115kts
04-Nov-18 18:59 33.742556 -116.381637 267 5121ft 137kts
04-Nov-18 19:00 33.750893 -116.421085 303 4039ft 120kts
04-Nov-18 19:01 33.770439 -116.450058 313 2410ft 111kts
04-Nov-18 19:02 33.792882 -116.474715 320 1141ft 111kts
04-Nov-18 19:03 33.817404 -116.496745 319 521ft 111kts
04-Nov-18 19:04 33.833279 -116.511398 246 438ft 14kts
04-Nov-18 19:05 33.833037 -116.511824 214 439ft 0kts
04-Nov-18 19:06 33.833037 -116.511824 214 439ft 0kts

Navigation Log

Ident Type
Flight plan parsing failed, navigation log unavailable